Licenciado y General Ignacio Lopez Rayon Airport
MMPN : now visible

Airfield :











YOU CAN JOIN US ON...

 
LOGIN :

Register | Disclaimer

   EN    FR    IT 

 









Legend :    VFR   Marginal VFR   IFR   Intensive IFR   Very Intensive IFR
Visi :
Ceiling :
>= 8 km
>= 3000ft
5 to 8 km
1000 to 3000 ft
1500m to 5 km
500 to 1000 ft
800 to 1500m
200 to 500 ft
< 800m
< 200 ft
Symbols :   Thunderstorms  Fog  Heavy snow  Heavy precipitations  Wind > 20 kt







- Airport Elevation : 5258 ft
- IATA code : UPN


MMPN - Licenciado y General Ignacio Lopez Rayon

CURRENT METAR :
  • 191840Z 00000KT 2SM -DZ BKN005 OVC015 19/18 A3019 RMK 6//// 8/8// PCPN S

EXPIRED METARs :
  • 191740Z 00000KT 2SM BR SCT005 BKN015 OVC025 19/17 A3021 RMK 6//// 8/8// PCPN S VRB CONDS
  • 191647Z 00000KT 2SM BR SCT005 BKN010 OVC015 18/17 A3022 RMK 8/8// VRB CONDS

TAF TAF MMPN
Valid from the 19 at 18:00 until the 20 at 18:00 UTC


191658Z 1918/2018 20010KT 1SM DZ BR SCT005 OVC010
FM192000 22010KT 3SM HZ BKN015CB OVC070
TEMPO 1921/2001 2SM RA
FM200200 00000KT 1SM DZ BR OVC005
FM201400 00000KT 3SM BR OVC010
No reported NOTAMs for that airfield.



MET'MAP, your aeronautical weather chart ! - Copyright ORBIFLY December 2007 - Disclaimer

ORBIFLY MET'MAP TEAM :

Programming & Development : Alexandra Zaïnal
Concept & Development : Baudouin d'Aumeries
Co-Development & Prog : Marc-Olivier Méhu
Technical & hardware support : Manuel Goepfert

Contact : metmap@orbifly.com




SOURCES & CREDITS :

   NOAA       Earth
Advisory